createdAt,value
2019-04-22T00:00:41.290Z,17.37
2019-04-22T00:03:14.204Z,20.03
2019-04-22T00:06:00.938Z,16.93
2019-04-22T00:08:35.783Z,16.80
2019-04-22T00:11:14.656Z,16.67
2019-04-22T00:13:46.872Z,15.80
2019-04-22T00:16:08.930Z,20.30
2019-04-22T00:18:57.846Z,13.07
2019-04-22T00:21:22.543Z,14.87
2019-04-22T00:23:49.548Z,16.20
2019-04-22T00:28:52.897Z,14.70
2019-04-22T00:31:21.007Z,17.30
2019-04-22T00:33:51.758Z,14.00
2019-04-22T00:36:24.015Z,15.40
2019-04-22T00:39:04.797Z,15.40
2019-04-22T00:41:34.174Z,13.90
2019-04-22T00:44:02.947Z,13.93
2019-04-22T00:46:34.021Z,15.87
2019-04-22T00:49:46.422Z,13.50
2019-04-22T00:51:36.423Z,15.03
2019-04-22T00:54:01.011Z,16.67
2019-04-22T00:56:27.735Z,17.40
2019-04-22T00:59:01.713Z,13.73
2019-04-22T01:01:55.838Z,15.93
2019-04-22T01:04:12.561Z,14.57
2019-04-22T01:06:51.619Z,14.00
2019-04-22T01:09:10.802Z,11.60
2019-04-22T01:11:37.713Z,13.30
2019-04-22T01:14:07.817Z,14.73
2019-04-22T01:16:43.184Z,14.10
2019-04-22T01:19:12.233Z,13.80
2019-04-22T01:21:44.977Z,13.50
2019-04-22T01:24:17.276Z,17.53
2019-04-22T01:26:47.710Z,14.70
2019-04-22T01:29:12.663Z,15.63
2019-04-22T01:31:35.241Z,19.73
2019-04-22T01:34:19.871Z,17.70
2019-04-22T01:36:55.372Z,17.87
2019-04-22T01:39:40.306Z,15.77
2019-04-22T01:42:06.171Z,19.10
2019-04-22T01:44:40.287Z,15.40
2019-04-22T01:47:10.109Z,16.23
2019-04-22T01:49:40.581Z,15.83
2019-04-22T01:52:11.474Z,15.50
2019-04-22T01:57:14.110Z,16.87
2019-04-22T01:59:40.401Z,12.03
2019-04-22T02:02:16.384Z,13.87
2019-04-22T02:04:53.712Z,13.30
2019-04-22T02:07:35.534Z,11.63
2019-04-22T02:09:53.676Z,13.50
2019-04-22T02:14:53.916Z,14.00
2019-04-22T02:17:31.485Z,13.70
2019-04-22T02:19:57.862Z,13.47
2019-04-22T02:22:42.952Z,13.07
2019-04-22T02:24:59.217Z,12.90
2019-04-22T02:27:37.624Z,12.60
2019-04-22T02:29:57.867Z,14.70
2019-04-22T02:35:11.598Z,17.67
2019-04-22T02:37:54.969Z,12.60
2019-04-22T02:40:39.041Z,14.47
2019-04-22T02:42:34.904Z,14.70
2019-04-22T02:45:07.678Z,13.40
2019-04-22T02:47:45.499Z,15.00
2019-04-22T02:50:08.914Z,16.50
2019-04-22T02:52:42.921Z,11.03
2019-04-22T02:55:17.138Z,13.00
2019-04-22T03:02:58.900Z,12.03
2019-04-22T03:05:27.955Z,14.00
2019-04-22T03:07:58.973Z,12.50
2019-04-22T03:10:29.435Z,13.50
2019-04-22T03:12:52.418Z,12.83
2019-04-22T03:15:20.360Z,13.33
2019-04-22T03:18:00.831Z,11.50
2019-04-22T03:20:29.344Z,13.30
2019-04-22T03:23:05.850Z,14.23
2019-04-22T03:28:06.381Z,14.03
2019-04-22T03:33:19.247Z,14.03
2019-04-22T03:35:45.163Z,16.67
2019-04-22T03:38:07.264Z,12.83
2019-04-22T03:40:47.256Z,14.70
2019-04-22T03:43:14.179Z,14.20
2019-04-22T03:45:51.300Z,14.50
2019-04-22T03:51:11.487Z,16.47
2019-04-22T03:53:33.630Z,12.60
2019-04-22T03:55:56.843Z,14.10
2019-04-22T03:58:16.645Z,12.33
2019-04-22T04:00:55.899Z,13.20
2019-04-22T04:03:19.309Z,13.13
2019-04-22T04:11:07.015Z,15.47
2019-04-22T04:15:57.669Z,14.60
2019-04-22T04:18:44.618Z,14.40
2019-04-22T04:31:22.290Z,18.70
2019-04-22T04:33:57.687Z,13.90
2019-04-22T04:36:11.581Z,12.37
2019-04-22T04:38:45.705Z,12.10
2019-04-22T04:41:16.818Z,14.70
2019-04-22T04:46:24.409Z,13.17
2019-04-22T04:48:58.480Z,11.37
2019-04-22T04:54:13.152Z,13.07
2019-04-22T04:59:05.275Z,16.47
2019-04-22T05:01:30.909Z,14.30
2019-04-22T05:11:43.003Z,12.97
2019-04-22T05:18:58.895Z,9.47
2019-04-22T05:21:21.823Z,12.27
2019-04-22T05:24:03.352Z,10.80
2019-04-22T05:26:35.515Z,11.90
2019-04-22T05:29:06.181Z,12.50
2019-04-22T05:34:04.313Z,14.43
2019-04-22T05:36:34.479Z,13.77
2019-04-22T05:39:06.197Z,14.47
2019-04-22T05:41:35.273Z,12.53
2019-04-22T05:44:08.669Z,10.00
2019-04-22T05:46:34.464Z,13.67
2019-04-22T05:49:14.946Z,12.13
2019-04-22T05:54:14.757Z,11.27
2019-04-22T05:59:32.486Z,11.23
2019-04-22T06:01:52.252Z,11.47
2019-04-22T06:04:19.851Z,9.70
2019-04-22T06:06:46.940Z,10.47
2019-04-22T06:09:24.862Z,10.10
2019-04-22T06:11:46.467Z,11.33
2019-04-22T06:14:24.839Z,12.40
2019-04-22T06:19:31.536Z,8.63
2019-04-22T06:22:04.244Z,11.20
2019-04-22T06:24:33.753Z,14.07
2019-04-22T06:27:14.867Z,14.30
2019-04-22T06:29:31.873Z,10.63
2019-04-22T06:32:26.589Z,8.40
2019-04-22T06:34:45.971Z,10.10
2019-04-22T06:37:16.090Z,9.90
2019-04-22T06:39:40.148Z,12.03
2019-04-22T06:42:13.709Z,8.97
2019-04-22T06:44:44.845Z,9.90
2019-04-22T06:47:14.825Z,10.50
2019-04-22T06:52:17.845Z,8.60
2019-04-22T06:54:48.965Z,8.60
2019-04-22T06:57:24.236Z,10.60
2019-04-22T06:59:53.754Z,11.23
2019-04-22T07:02:30.608Z,11.13
2019-04-22T07:04:56.295Z,9.73
2019-04-22T07:07:38.420Z,8.17
2019-04-22T07:10:23.677Z,11.37
2019-04-22T07:12:29.145Z,8.20
2019-04-22T07:15:02.809Z,13.20
2019-04-22T07:17:39.447Z,10.10
2019-04-22T07:20:01.963Z,8.70
2019-04-22T07:22:45.394Z,7.63
2019-04-22T07:25:06.273Z,9.80
2019-04-22T07:27:34.465Z,10.80
2019-04-22T07:30:08.598Z,10.17
2019-04-22T07:32:59.226Z,9.70
2019-04-22T07:35:19.292Z,7.70
2019-04-22T07:40:13.748Z,9.23
2019-04-22T07:42:45.772Z,10.50
2019-04-22T07:45:22.578Z,11.23
2019-04-22T07:47:46.588Z,8.80
2019-04-22T07:50:20.524Z,9.27
2019-04-22T07:52:47.018Z,11.50
2019-04-22T07:55:14.476Z,8.77
2019-04-22T07:58:05.440Z,9.20
2019-04-22T08:00:27.371Z,9.67
2019-04-22T08:03:05.058Z,10.00
2019-04-22T08:05:26.328Z,9.80
2019-04-22T08:08:05.283Z,8.00
2019-04-22T08:10:30.966Z,7.97
2019-04-22T08:12:57.933Z,8.43
2019-04-22T08:15:28.002Z,9.40
2019-04-22T08:20:37.233Z,7.77
2019-04-22T08:23:09.039Z,8.27
2019-04-22T08:25:38.819Z,8.30
2019-04-22T08:28:25.532Z,9.60
2019-04-22T08:30:56.802Z,8.00
2019-04-22T08:36:06.410Z,8.63
2019-04-22T08:38:35.670Z,8.20
2019-04-22T08:41:28.358Z,8.57
2019-04-22T08:43:57.359Z,9.83
2019-04-22T08:46:40.378Z,8.73
2019-04-22T08:49:10.189Z,9.60
2019-04-22T08:51:42.131Z,10.70
2019-04-22T08:54:18.283Z,8.60
2019-04-22T08:59:19.489Z,9.10
2019-04-22T09:01:51.765Z,7.77
2019-04-22T09:04:16.234Z,7.97
2019-04-22T09:07:09.170Z,8.20
2019-04-22T09:09:27.015Z,8.13
2019-04-22T09:12:15.380Z,8.33
2019-04-22T09:14:32.425Z,9.97
2019-04-22T09:17:04.100Z,7.90
2019-04-22T09:19:28.464Z,7.30
2019-04-22T09:22:06.328Z,7.40
2019-04-22T09:24:35.622Z,7.77
2019-04-22T09:27:03.450Z,9.93
2019-04-22T09:29:41.580Z,8.50
2019-04-22T09:32:11.322Z,6.67
2019-04-22T09:34:39.862Z,8.20
2019-04-22T09:37:20.417Z,7.00
2019-04-22T09:39:41.098Z,11.00
2019-04-22T09:42:14.470Z,8.90
2019-04-22T09:47:12.894Z,9.50
2019-04-22T09:49:51.834Z,7.83
2019-04-22T09:52:16.181Z,13.63
2019-04-22T09:54:57.580Z,7.97
2019-04-22T09:57:21.206Z,8.47
2019-04-22T10:00:00.146Z,8.57
2019-04-22T10:02:24.996Z,8.80
2019-04-22T10:04:57.207Z,10.27
2019-04-22T10:07:25.722Z,9.07
2019-04-22T10:10:04.707Z,9.00
2019-04-22T10:12:32.431Z,7.73
2019-04-22T10:14:55.500Z,9.07
2019-04-22T10:17:25.114Z,8.70
2019-04-22T10:20:02.416Z,11.90
2019-04-22T10:25:08.711Z,8.77
2019-04-22T10:27:32.705Z,9.80
2019-04-22T10:30:02.783Z,9.10
2019-04-22T10:32:37.959Z,10.43
2019-04-22T10:34:58.761Z,12.90
2019-04-22T10:37:24.271Z,10.60
2019-04-22T10:39:58.787Z,10.27
2019-04-22T10:42:25.214Z,13.40
2019-04-22T10:44:55.570Z,11.90
2019-04-22T10:47:25.716Z,11.50
2019-04-22T10:49:56.297Z,11.70
2019-04-22T10:52:25.953Z,12.70
2019-04-22T10:54:55.811Z,14.47
2019-04-22T10:57:25.637Z,15.07
2019-04-22T10:59:56.502Z,13.37
2019-04-22T11:02:27.600Z,15.17
2019-04-22T11:04:58.463Z,17.80
2019-04-22T11:07:37.311Z,14.33
2019-04-22T11:10:17.851Z,15.33
2019-04-22T11:12:35.256Z,15.67
2019-04-22T11:15:03.497Z,22.63
2019-04-22T11:17:33.545Z,15.10
2019-04-22T11:20:03.779Z,14.70
2019-04-22T11:22:36.819Z,17.77
2019-04-22T11:25:09.797Z,16.20
2019-04-22T11:27:39.503Z,18.77
2019-04-22T11:30:13.425Z,17.97
2019-04-22T11:32:44.647Z,21.07
2019-04-22T11:35:16.149Z,15.80
2019-04-22T11:37:46.604Z,19.70
2019-04-22T11:40:25.374Z,20.20
2019-04-22T11:42:50.188Z,16.53
2019-04-22T11:45:21.534Z,19.67
2019-04-22T11:47:51.255Z,18.83
2019-04-22T11:50:24.211Z,18.93
2019-04-22T11:52:55.011Z,18.80
2019-04-22T11:55:26.692Z,15.43
2019-04-22T11:57:56.623Z,21.17
2019-04-22T12:00:32.768Z,18.47
2019-04-22T12:03:03.174Z,22.07
2019-04-22T12:05:34.341Z,18.97
2019-04-22T12:08:04.981Z,21.40
2019-04-22T12:10:42.978Z,21.23
2019-04-22T12:13:08.101Z,24.53
2019-04-22T12:15:37.864Z,17.20
2019-04-22T12:18:09.001Z,22.93
2019-04-22T12:20:39.202Z,22.63
2019-04-22T12:23:09.448Z,22.47
2019-04-22T12:25:47.611Z,21.40
2019-04-22T12:28:11.132Z,24.67
2019-04-22T12:30:41.757Z,24.23
2019-04-22T12:33:14.564Z,25.53
2019-04-22T12:35:42.509Z,27.50
2019-04-22T12:38:13.154Z,25.20
2019-04-22T12:40:52.278Z,23.10
2019-04-22T12:43:18.095Z,21.83
2019-04-22T12:45:45.890Z,24.07
2019-04-22T12:48:15.388Z,22.17
2019-04-22T12:50:48.039Z,23.50
2019-04-22T12:53:19.852Z,21.90
2019-04-22T12:55:48.091Z,22.23
2019-04-22T12:58:18.109Z,21.10
2019-04-22T13:00:48.460Z,19.77
2019-04-22T13:03:18.313Z,17.03
2019-04-22T13:05:49.317Z,16.53
2019-04-22T13:08:20.007Z,20.27
2019-04-22T13:10:57.445Z,20.47
2019-04-22T13:13:20.893Z,16.43
2019-04-22T13:15:51.008Z,16.83
2019-04-22T13:18:31.077Z,19.00
2019-04-22T13:20:52.857Z,21.87
2019-04-22T13:23:22.458Z,18.50
2019-04-22T13:25:52.663Z,16.60
2019-04-22T13:28:23.035Z,16.83
2019-04-22T13:30:52.832Z,15.77
2019-04-22T13:33:23.183Z,17.43
2019-04-22T13:35:54.349Z,17.40
2019-04-22T13:38:24.939Z,15.03
2019-04-22T13:41:09.820Z,13.30
2019-04-22T13:43:27.065Z,13.80
2019-04-22T13:45:58.038Z,14.63
2019-04-22T13:48:46.404Z,16.50
2019-04-22T13:51:32.612Z,15.97
2019-04-22T13:54:30.118Z,12.50
2019-04-22T13:56:19.140Z,13.73
2019-04-22T13:58:48.456Z,16.90
2019-04-22T14:01:14.669Z,11.73
2019-04-22T14:03:52.621Z,12.80
2019-04-22T14:06:22.657Z,11.53
2019-04-22T14:08:53.422Z,11.07
2019-04-22T14:11:32.706Z,13.67
2019-04-22T14:13:54.302Z,10.57
2019-04-22T14:16:24.859Z,14.17
2019-04-22T14:18:54.318Z,10.60
2019-04-22T14:21:24.945Z,14.50
2019-04-22T14:23:54.401Z,12.77
2019-04-22T14:26:25.065Z,11.90
2019-04-22T14:28:55.700Z,12.00
2019-04-22T14:31:26.540Z,13.67
2019-04-22T14:34:01.436Z,15.87
2019-04-22T14:36:27.604Z,11.07
2019-04-22T14:38:57.764Z,12.87
2019-04-22T14:41:40.681Z,21.43
2019-04-22T14:45:00.799Z,14.20
2019-04-22T14:47:02.173Z,14.67
2019-04-22T14:49:24.038Z,8.60
2019-04-22T14:51:57.679Z,7.63
2019-04-22T14:54:21.169Z,12.20
2019-04-22T14:56:36.078Z,13.83
2019-04-22T14:59:06.985Z,10.17
2019-04-22T15:01:39.448Z,11.43
2019-04-22T15:04:08.966Z,9.50
2019-04-22T15:06:40.073Z,8.57
2019-04-22T15:09:10.321Z,9.10
2019-04-22T15:11:52.865Z,7.60
2019-04-22T15:14:11.649Z,11.90
2019-04-22T15:16:42.833Z,8.20
2019-04-22T15:19:17.900Z,8.20
2019-04-22T15:21:47.575Z,7.13
2019-04-22T15:24:27.541Z,8.90
2019-04-22T15:26:58.844Z,10.43
2019-04-22T15:29:29.596Z,6.83
2019-04-22T15:31:59.961Z,7.97
2019-04-22T15:34:30.642Z,7.73
2019-04-22T15:37:02.163Z,15.93
2019-04-22T15:39:31.765Z,8.00
2019-04-22T15:42:11.693Z,8.30
2019-04-22T15:44:33.812Z,9.20
2019-04-22T15:47:04.838Z,8.00
2019-04-22T15:49:35.747Z,10.20
2019-04-22T15:52:07.536Z,9.60
2019-04-22T15:54:37.615Z,7.80
2019-04-22T15:57:08.723Z,7.93
2019-04-22T15:59:54.086Z,8.60
2019-04-22T16:02:10.072Z,7.57
2019-04-22T16:04:41.224Z,8.10
2019-04-22T16:07:10.970Z,8.80
2019-04-22T16:09:41.616Z,7.13
2019-04-22T16:12:20.008Z,8.90
2019-04-22T16:14:49.498Z,8.90
2019-04-22T16:17:15.058Z,11.37
2019-04-22T16:19:45.137Z,11.20
2019-04-22T16:22:19.126Z,10.53
2019-04-22T16:25:04.847Z,11.10
2019-04-22T16:27:34.456Z,10.17
2019-04-22T16:30:05.522Z,10.33
2019-04-22T16:32:37.098Z,8.70
2019-04-22T16:35:08.724Z,14.13
2019-04-22T16:37:38.992Z,12.40
2019-04-22T16:40:09.349Z,7.60
2019-04-22T16:42:45.948Z,10.70
2019-04-22T16:45:11.518Z,10.40
2019-04-22T16:47:41.834Z,9.40
2019-04-22T16:50:12.014Z,10.10
2019-04-22T16:52:41.792Z,9.90
2019-04-22T16:55:12.826Z,11.90
2019-04-22T16:57:43.980Z,7.73
2019-04-22T17:00:16.737Z,8.43
2019-04-22T17:03:04.760Z,9.10
2019-04-22T17:05:53.632Z,9.63
2019-04-22T17:08:24.590Z,8.30
2019-04-22T17:10:54.118Z,10.37
2019-04-22T17:13:27.250Z,10.73
2019-04-22T17:15:58.574Z,12.77
2019-04-22T17:18:27.369Z,11.07
2019-04-22T17:20:58.471Z,10.40
2019-04-22T17:23:29.551Z,12.07
2019-04-22T17:26:00.676Z,9.70
2019-04-22T17:28:31.317Z,9.37
2019-04-22T17:31:01.916Z,10.17
2019-04-22T17:33:32.704Z,8.90
2019-04-22T17:36:03.342Z,11.10
2019-04-22T17:38:44.038Z,9.87
2019-04-22T17:41:18.731Z,11.23
2019-04-22T17:43:59.132Z,8.00
2019-04-22T17:46:33.636Z,10.60
2019-04-22T17:49:15.417Z,8.50
2019-04-22T17:51:55.062Z,8.67
2019-04-22T17:54:19.736Z,8.67
2019-04-22T17:56:48.610Z,10.57
2019-04-22T17:59:20.390Z,12.50
2019-04-22T18:01:55.126Z,8.70
2019-04-22T18:04:08.630Z,9.80
2019-04-22T18:07:02.912Z,10.83
2019-04-22T18:09:53.666Z,8.67
2019-04-22T18:12:12.175Z,11.20
2019-04-22T18:17:11.558Z,12.07
2019-04-22T18:19:39.644Z,10.90
2019-04-22T18:22:03.678Z,10.67
2019-04-22T18:24:32.627Z,9.80
2019-04-22T18:27:31.950Z,11.20
2019-04-22T18:29:43.350Z,15.20
2019-04-22T18:32:08.896Z,13.50
2019-04-22T18:34:41.145Z,9.97
2019-04-22T18:37:16.422Z,10.40
2019-04-22T18:39:53.714Z,10.97
2019-04-22T18:42:16.874Z,10.00
2019-04-22T18:45:06.599Z,24.83
2019-04-22T18:47:18.580Z,12.90
2019-04-22T18:49:52.553Z,10.50
2019-04-22T18:52:48.879Z,12.33
2019-04-22T18:55:30.818Z,13.03
2019-04-22T18:58:02.651Z,15.73
2019-04-22T19:00:31.905Z,11.97
2019-04-22T19:03:08.923Z,12.53
2019-04-22T19:05:49.514Z,17.10
2019-04-22T19:08:28.330Z,11.40
2019-04-22T19:11:06.911Z,12.53
2019-04-22T19:16:19.716Z,11.23
2019-04-22T19:21:08.051Z,12.03
2019-04-22T19:23:43.408Z,12.63
2019-04-22T19:26:11.906Z,11.37
2019-04-22T19:28:43.370Z,13.73
2019-04-22T19:31:16.942Z,13.50
2019-04-22T19:33:40.664Z,13.67
2019-04-22T19:36:14.995Z,13.17
2019-04-22T19:38:34.049Z,14.33
2019-04-22T19:41:19.714Z,14.63
2019-04-22T19:43:47.302Z,14.50
2019-04-22T19:46:16.738Z,12.87
2019-04-22T19:49:00.301Z,15.67
2019-04-22T19:51:27.957Z,17.23
2019-04-22T19:53:55.945Z,14.63
2019-04-22T19:56:20.757Z,14.80
2019-04-22T19:58:53.488Z,13.60
2019-04-22T20:01:39.633Z,15.60
2019-04-22T20:04:15.074Z,16.97
2019-04-22T20:06:41.300Z,14.27
2019-04-22T20:09:22.455Z,14.10
2019-04-22T20:11:43.887Z,13.13
2019-04-22T20:14:28.106Z,15.43
2019-04-22T20:16:43.909Z,13.20
2019-04-22T20:19:25.217Z,17.13
2019-04-22T20:21:51.973Z,15.30
2019-04-22T20:24:12.337Z,15.53
2019-04-22T20:27:14.922Z,13.27
2019-04-22T20:29:30.959Z,13.40
2019-04-22T20:31:59.295Z,15.27
2019-04-22T20:34:33.781Z,13.80
2019-04-22T20:39:38.018Z,16.87
2019-04-22T20:42:16.627Z,13.00
2019-04-22T20:44:39.620Z,15.10
2019-04-22T20:47:04.594Z,16.57
2019-04-22T20:49:40.339Z,13.93
2019-04-22T20:52:13.708Z,19.40
2019-04-22T20:54:40.800Z,16.87
2019-04-22T20:57:07.468Z,15.70
2019-04-22T20:59:40.557Z,17.97
2019-04-22T21:02:09.620Z,16.97
2019-04-22T21:04:40.858Z,14.30
2019-04-22T21:07:13.828Z,13.53
2019-04-22T21:09:50.529Z,23.13
2019-04-22T21:12:13.737Z,17.17
2019-04-22T21:14:58.166Z,14.80
2019-04-22T21:17:25.060Z,14.63
2019-04-22T21:20:00.682Z,15.20
2019-04-22T21:22:29.183Z,14.73
2019-04-22T21:24:53.308Z,18.90
2019-04-22T21:27:28.296Z,16.37
2019-04-22T21:29:50.725Z,15.60
2019-04-22T21:32:32.884Z,18.33
2019-04-22T21:35:19.830Z,15.23
2019-04-22T21:37:51.018Z,17.67
2019-04-22T21:39:56.837Z,17.33
2019-04-22T21:42:38.337Z,14.80
2019-04-22T21:45:04.758Z,18.77
2019-04-22T21:47:44.383Z,20.33
2019-04-22T21:50:31.001Z,13.63
2019-04-22T21:52:42.611Z,18.20
2019-04-22T21:55:10.224Z,19.93
2019-04-22T21:57:53.383Z,15.43
2019-04-22T22:00:22.655Z,17.80
2019-04-22T22:02:52.568Z,17.40
2019-04-22T22:05:12.561Z,27.03
2019-04-22T22:07:32.922Z,15.37
2019-04-22T22:10:21.191Z,18.23
2019-04-22T22:12:54.845Z,19.80
2019-04-22T22:15:24.705Z,18.43
2019-04-22T22:17:55.469Z,12.60
2019-04-22T22:20:22.727Z,14.87
2019-04-22T22:23:09.162Z,15.50
2019-04-22T22:25:30.176Z,14.70
2019-04-22T22:28:08.807Z,16.80
2019-04-22T22:30:47.685Z,14.90
2019-04-22T22:33:05.780Z,14.50
2019-04-22T22:35:35.940Z,17.43
2019-04-22T22:38:09.126Z,15.37
2019-04-22T22:40:26.055Z,15.40
2019-04-22T22:42:55.109Z,16.27
2019-04-22T22:45:33.689Z,18.03
2019-04-22T22:48:21.661Z,17.67
2019-04-22T22:50:44.595Z,14.93
2019-04-22T22:53:31.105Z,16.83
2019-04-22T22:55:45.864Z,15.67
2019-04-22T22:58:23.815Z,16.17
2019-04-22T23:00:44.441Z,15.20
2019-04-22T23:03:40.510Z,15.60
2019-04-22T23:06:00.600Z,13.50
2019-04-22T23:08:29.576Z,16.27
2019-04-22T23:11:00.441Z,17.80
2019-04-22T23:13:31.460Z,14.80
2019-04-22T23:15:50.708Z,13.47
2019-04-22T23:18:10.079Z,15.90
2019-04-22T23:20:45.141Z,16.13
2019-04-22T23:23:36.070Z,16.33
2019-04-22T23:26:06.808Z,13.80
2019-04-22T23:28:34.870Z,12.70
2019-04-22T23:31:09.533Z,15.40
2019-04-22T23:33:46.297Z,14.47
2019-04-22T23:36:20.364Z,16.80
2019-04-22T23:39:02.353Z,19.83
2019-04-22T23:41:51.326Z,15.07
2019-04-22T23:46:51.967Z,13.00
2019-04-22T23:49:22.307Z,22.10
2019-04-22T23:52:22.405Z,16.77
2019-04-22T23:54:43.609Z,16.43
2019-04-22T23:57:03.191Z,16.43
